sensor_id;sensor_type;location;lat;lon;timestamp;temperature;humidity
48019;DHT22;33786;48.690;9.562;2023-03-01T00:01:09;-1.80;99.90
48019;DHT22;33786;48.690;9.562;2023-03-01T00:03:36;-1.90;99.90
48019;DHT22;33786;48.690;9.562;2023-03-01T00:06:04;-1.90;99.90
48019;DHT22;33786;48.690;9.562;2023-03-01T00:08:30;-1.90;99.90
48019;DHT22;33786;48.690;9.562;2023-03-01T00:13:28;-2.00;99.90
48019;DHT22;33786;48.690;9.562;2023-03-01T00:15:55;-2.00;99.90
48019;DHT22;33786;48.690;9.562;2023-03-01T00:18:21;-2.00;99.90
48019;DHT22;33786;48.690;9.562;2023-03-01T00:20:55;-2.00;99.90
48019;DHT22;33786;48.690;9.562;2023-03-01T00:23:22;-2.00;99.90
48019;DHT22;33786;48.690;9.562;2023-03-01T00:25:49;-2.10;99.90
48019;DHT22;33786;48.690;9.562;2023-03-01T00:28:16;-2.10;99.90
48019;DHT22;33786;48.690;9.562;2023-03-01T00:30:42;-2.10;99.90
48019;DHT22;33786;48.690;9.562;2023-03-01T00:33:09;-2.10;99.90
48019;DHT22;33786;48.690;9.562;2023-03-01T00:35:36;-2.20;99.90
48019;DHT22;33786;48.690;9.562;2023-03-01T00:38:03;-2.20;99.90
48019;DHT22;33786;48.690;9.562;2023-03-01T00:40:31;-2.20;99.90
48019;DHT22;33786;48.690;9.562;2023-03-01T00:42:59;-2.20;99.90
48019;DHT22;33786;48.690;9.562;2023-03-01T00:45:26;-2.20;99.90
48019;DHT22;33786;48.690;9.562;2023-03-01T00:47:53;-2.20;99.90
48019;DHT22;33786;48.690;9.562;2023-03-01T00:50:20;-2.20;99.90
48019;DHT22;33786;48.690;9.562;2023-03-01T00:52:46;-2.30;99.90
48019;DHT22;33786;48.690;9.562;2023-03-01T00:55:13;-2.30;99.90
48019;DHT22;33786;48.690;9.562;2023-03-01T00:57:40;-2.30;99.90
48019;DHT22;33786;48.690;9.562;2023-03-01T01:00:07;-2.30;99.90
48019;DHT22;33786;48.690;9.562;2023-03-01T01:02:35;-2.30;99.90
48019;DHT22;33786;48.690;9.562;2023-03-01T01:05:03;-2.30;99.90
48019;DHT22;33786;48.690;9.562;2023-03-01T01:07:30;-2.30;99.90
48019;DHT22;33786;48.690;9.562;2023-03-01T01:09:56;-2.20;99.90
48019;DHT22;33786;48.690;9.562;2023-03-01T01:12:23;-2.20;99.90
48019;DHT22;33786;48.690;9.562;2023-03-01T01:14:50;-2.20;99.90
48019;DHT22;33786;48.690;9.562;2023-03-01T01:17:16;-2.10;99.90
48019;DHT22;33786;48.690;9.562;2023-03-01T01:19:43;-2.00;99.90
48019;DHT22;33786;48.690;9.562;2023-03-01T01:22:10;-2.00;99.90
48019;DHT22;33786;48.690;9.562;2023-03-01T01:24:36;-1.80;99.90
48019;DHT22;33786;48.690;9.562;2023-03-01T01:27:03;-1.80;99.90
48019;DHT22;33786;48.690;9.562;2023-03-01T01:29:30;-1.70;99.90
48019;DHT22;33786;48.690;9.562;2023-03-01T01:31:56;-1.60;99.90
48019;DHT22;33786;48.690;9.562;2023-03-01T01:34:23;-1.50;99.90
48019;DHT22;33786;48.690;9.562;2023-03-01T01:36:50;-1.50;99.90
48019;DHT22;33786;48.690;9.562;2023-03-01T01:39:20;-1.40;99.90
48019;DHT22;33786;48.690;9.562;2023-03-01T01:41:47;-1.30;99.90
48019;DHT22;33786;48.690;9.562;2023-03-01T01:44:15;-1.20;99.90
48019;DHT22;33786;48.690;9.562;2023-03-01T01:46:44;-1.20;99.90
48019;DHT22;33786;48.690;9.562;2023-03-01T01:51:45;-1.10;99.90
48019;DHT22;33786;48.690;9.562;2023-03-01T01:54:16;-1.00;99.90
48019;DHT22;33786;48.690;9.562;2023-03-01T01:56:47;-1.00;99.90
48019;DHT22;33786;48.690;9.562;2023-03-01T01:59:14;-1.00;99.90
48019;DHT22;33786;48.690;9.562;2023-03-01T02:01:41;-1.00;99.90
48019;DHT22;33786;48.690;9.562;2023-03-01T02:04:08;-1.00;99.90
48019;DHT22;33786;48.690;9.562;2023-03-01T02:06:37;-1.00;99.90
48019;DHT22;33786;48.690;9.562;2023-03-01T02:09:06;-1.00;99.90
48019;DHT22;33786;48.690;9.562;2023-03-01T02:11:34;-1.00;99.90
48019;DHT22;33786;48.690;9.562;2023-03-01T02:14:00;-1.00;99.90
48019;DHT22;33786;48.690;9.562;2023-03-01T02:16:27;-0.90;99.90
48019;DHT22;33786;48.690;9.562;2023-03-01T02:18:56;-0.90;99.90
48019;DHT22;33786;48.690;9.562;2023-03-01T02:27:04;-0.80;99.90
48019;DHT22;33786;48.690;9.562;2023-03-01T02:29:31;-0.80;99.90
48019;DHT22;33786;48.690;9.562;2023-03-01T02:32:00;-0.80;99.90
48019;DHT22;33786;48.690;9.562;2023-03-01T02:34:28;-0.80;99.90
48019;DHT22;33786;48.690;9.562;2023-03-01T02:37:02;-0.70;99.90
48019;DHT22;33786;48.690;9.562;2023-03-01T02:39:36;-0.70;99.90
48019;DHT22;33786;48.690;9.562;2023-03-01T02:42:04;-0.80;99.90
48019;DHT22;33786;48.690;9.562;2023-03-01T02:44:32;-0.70;99.90
48019;DHT22;33786;48.690;9.562;2023-03-01T02:47:00;-0.70;99.90
48019;DHT22;33786;48.690;9.562;2023-03-01T02:49:29;-0.70;99.90
48019;DHT22;33786;48.690;9.562;2023-03-01T02:55:02;-0.70;99.90
48019;DHT22;33786;48.690;9.562;2023-03-01T02:57:30;-0.60;99.90
48019;DHT22;33786;48.690;9.562;2023-03-01T02:59:58;-0.60;99.90
48019;DHT22;33786;48.690;9.562;2023-03-01T03:02:28;-0.60;99.90
48019;DHT22;33786;48.690;9.562;2023-03-01T03:07:35;-0.70;99.90
48019;DHT22;33786;48.690;9.562;2023-03-01T03:10:03;-0.70;99.90
48019;DHT22;33786;48.690;9.562;2023-03-01T03:12:30;-0.70;99.90
48019;DHT22;33786;48.690;9.562;2023-03-01T03:14:56;-0.70;99.90
48019;DHT22;33786;48.690;9.562;2023-03-01T03:17:23;-0.70;99.90
48019;DHT22;33786;48.690;9.562;2023-03-01T03:19:50;-0.60;99.90
48019;DHT22;33786;48.690;9.562;2023-03-01T03:22:16;-0.70;99.90
48019;DHT22;33786;48.690;9.562;2023-03-01T03:24:43;-0.60;99.90
48019;DHT22;33786;48.690;9.562;2023-03-01T03:27:10;-0.60;99.90
48019;DHT22;33786;48.690;9.562;2023-03-01T03:29:37;-0.60;99.90
48019;DHT22;33786;48.690;9.562;2023-03-01T03:32:04;-0.60;99.90
48019;DHT22;33786;48.690;9.562;2023-03-01T03:34:30;-0.50;99.90
48019;DHT22;33786;48.690;9.562;2023-03-01T03:36:57;-0.50;99.90
48019;DHT22;33786;48.690;9.562;2023-03-01T03:39:26;-0.50;99.90
48019;DHT22;33786;48.690;9.562;2023-03-01T03:42:01;-0.50;99.90
48019;DHT22;33786;48.690;9.562;2023-03-01T03:44:28;-0.50;99.90
48019;DHT22;33786;48.690;9.562;2023-03-01T03:46:54;-0.50;99.90
48019;DHT22;33786;48.690;9.562;2023-03-01T03:49:21;-0.50;99.90
48019;DHT22;33786;48.690;9.562;2023-03-01T03:51:48;-0.50;99.90
48019;DHT22;33786;48.690;9.562;2023-03-01T03:54:15;-0.50;99.90
48019;DHT22;33786;48.690;9.562;2023-03-01T03:56:42;-0.50;99.90
48019;DHT22;33786;48.690;9.562;2023-03-01T03:59:10;-0.40;99.90
48019;DHT22;33786;48.690;9.562;2023-03-01T04:01:37;-0.50;99.90
48019;DHT22;33786;48.690;9.562;2023-03-01T04:04:04;-0.50;99.90
48019;DHT22;33786;48.690;9.562;2023-03-01T04:06:31;-0.30;99.90
48019;DHT22;33786;48.690;9.562;2023-03-01T04:08:58;-0.40;99.90
48019;DHT22;33786;48.690;9.562;2023-03-01T04:11:28;-0.30;99.90
48019;DHT22;33786;48.690;9.562;2023-03-01T04:13:56;-0.40;99.90
48019;DHT22;33786;48.690;9.562;2023-03-01T04:16:23;-0.30;99.90
48019;DHT22;33786;48.690;9.562;2023-03-01T04:18:50;-0.30;99.90
48019;DHT22;33786;48.690;9.562;2023-03-01T04:21:18;-0.30;99.90
48019;DHT22;33786;48.690;9.562;2023-03-01T04:23:46;-0.30;99.90
48019;DHT22;33786;48.690;9.562;2023-03-01T04:26:13;-0.20;99.90
48019;DHT22;33786;48.690;9.562;2023-03-01T04:28:40;-0.30;99.90
48019;DHT22;33786;48.690;9.562;2023-03-01T04:31:12;-0.30;99.90
48019;DHT22;33786;48.690;9.562;2023-03-01T04:33:41;-0.20;99.90
48019;DHT22;33786;48.690;9.562;2023-03-01T04:36:08;-0.20;99.90
48019;DHT22;33786;48.690;9.562;2023-03-01T04:38:36;-0.30;99.90
48019;DHT22;33786;48.690;9.562;2023-03-01T04:41:07;-0.30;99.90
48019;DHT22;33786;48.690;9.562;2023-03-01T04:43:34;-0.30;99.90
48019;DHT22;33786;48.690;9.562;2023-03-01T04:46:01;-0.30;99.90
48019;DHT22;33786;48.690;9.562;2023-03-01T04:48:30;-0.30;99.90
48019;DHT22;33786;48.690;9.562;2023-03-01T04:50:58;-0.40;99.90
48019;DHT22;33786;48.690;9.562;2023-03-01T04:53:25;-0.40;99.90
48019;DHT22;33786;48.690;9.562;2023-03-01T04:55:52;-0.20;99.90
48019;DHT22;33786;48.690;9.562;2023-03-01T04:58:20;-0.30;99.90
48019;DHT22;33786;48.690;9.562;2023-03-01T05:00:46;-0.30;99.90
48019;DHT22;33786;48.690;9.562;2023-03-01T05:03:13;-0.40;99.90
48019;DHT22;33786;48.690;9.562;2023-03-01T05:05:45;-0.40;99.90
48019;DHT22;33786;48.690;9.562;2023-03-01T05:08:12;-0.30;99.90
48019;DHT22;33786;48.690;9.562;2023-03-01T05:10:44;-0.30;99.90
48019;DHT22;33786;48.690;9.562;2023-03-01T05:13:12;-0.30;99.90
48019;DHT22;33786;48.690;9.562;2023-03-01T05:15:48;-0.20;99.90
48019;DHT22;33786;48.690;9.562;2023-03-01T05:18:15;-0.20;99.90
48019;DHT22;33786;48.690;9.562;2023-03-01T05:20:42;-0.20;99.90
48019;DHT22;33786;48.690;9.562;2023-03-01T05:23:08;-0.20;99.90
48019;DHT22;33786;48.690;9.562;2023-03-01T05:25:35;-0.30;99.90
48019;DHT22;33786;48.690;9.562;2023-03-01T05:28:08;-0.20;99.90
48019;DHT22;33786;48.690;9.562;2023-03-01T05:30:36;-0.20;99.90
48019;DHT22;33786;48.690;9.562;2023-03-01T05:33:05;-0.10;99.90
48019;DHT22;33786;48.690;9.562;2023-03-01T05:35:36;-0.20;99.90
48019;DHT22;33786;48.690;9.562;2023-03-01T05:38:03;-0.20;99.90
48019;DHT22;33786;48.690;9.562;2023-03-01T05:40:30;-0.20;99.90
48019;DHT22;33786;48.690;9.562;2023-03-01T05:42:59;-0.10;99.90
48019;DHT22;33786;48.690;9.562;2023-03-01T05:45:26;-0.20;99.90
48019;DHT22;33786;48.690;9.562;2023-03-01T05:47:53;-0.20;99.90
48019;DHT22;33786;48.690;9.562;2023-03-01T05:50:22;-0.20;99.90
48019;DHT22;33786;48.690;9.562;2023-03-01T05:52:50;-0.30;99.90
48019;DHT22;33786;48.690;9.562;2023-03-01T05:55:19;-0.30;99.90
48019;DHT22;33786;48.690;9.562;2023-03-01T05:57:46;-0.40;99.90
48019;DHT22;33786;48.690;9.562;2023-03-01T06:00:14;-0.40;99.90
48019;DHT22;33786;48.690;9.562;2023-03-01T06:02:41;-0.40;99.90
48019;DHT22;33786;48.690;9.562;2023-03-01T06:05:08;-0.50;99.90
48019;DHT22;33786;48.690;9.562;2023-03-01T06:07:35;-0.40;99.90
48019;DHT22;33786;48.690;9.562;2023-03-01T06:10:03;-0.40;99.90
48019;DHT22;33786;48.690;9.562;2023-03-01T06:12:30;-0.50;99.90
48019;DHT22;33786;48.690;9.562;2023-03-01T06:14:57;-0.50;99.90
48019;DHT22;33786;48.690;9.562;2023-03-01T06:17:24;-0.50;99.90
48019;DHT22;33786;48.690;9.562;2023-03-01T06:19:50;-0.40;99.90
48019;DHT22;33786;48.690;9.562;2023-03-01T06:22:17;-0.40;99.90
48019;DHT22;33786;48.690;9.562;2023-03-01T06:24:44;-0.40;99.90
48019;DHT22;33786;48.690;9.562;2023-03-01T06:27:10;-0.40;99.90
48019;DHT22;33786;48.690;9.562;2023-03-01T06:29:37;-0.40;99.90
48019;DHT22;33786;48.690;9.562;2023-03-01T06:32:04;-0.40;99.90
48019;DHT22;33786;48.690;9.562;2023-03-01T06:34:31;-0.40;99.90
48019;DHT22;33786;48.690;9.562;2023-03-01T06:36:58;-0.30;99.90
48019;DHT22;33786;48.690;9.562;2023-03-01T06:39:27;-0.30;99.90
48019;DHT22;33786;48.690;9.562;2023-03-01T06:41:53;-0.30;99.90
48019;DHT22;33786;48.690;9.562;2023-03-01T06:44:20;-0.30;99.90
48019;DHT22;33786;48.690;9.562;2023-03-01T06:46:47;0.00;99.90
48019;DHT22;33786;48.690;9.562;2023-03-01T06:49:14;0.70;99.90
48019;DHT22;33786;48.690;9.562;2023-03-01T06:51:42;1.80;99.90
48019;DHT22;33786;48.690;9.562;2023-03-01T06:54:09;2.60;98.60
48019;DHT22;33786;48.690;9.562;2023-03-01T06:56:36;3.20;97.20
48019;DHT22;33786;48.690;9.562;2023-03-01T06:59:02;4.00;95.30
48019;DHT22;33786;48.690;9.562;2023-03-01T07:01:29;4.40;94.40
48019;DHT22;33786;48.690;9.562;2023-03-01T07:03:56;5.20;92.90
48019;DHT22;33786;48.690;9.562;2023-03-01T07:06:23;5.90;91.20
48019;DHT22;33786;48.690;9.562;2023-03-01T07:08:49;5.60;91.10
48019;DHT22;33786;48.690;9.562;2023-03-01T07:11:16;5.30;91.60
48019;DHT22;33786;48.690;9.562;2023-03-01T07:13:43;5.30;91.80
48019;DHT22;33786;48.690;9.562;2023-03-01T07:16:09;6.40;90.30
48019;DHT22;33786;48.690;9.562;2023-03-01T07:18:36;6.00;89.50
48019;DHT22;33786;48.690;9.562;2023-03-01T07:21:04;5.50;90.50
48019;DHT22;33786;48.690;9.562;2023-03-01T07:23:30;5.50;90.90
48019;DHT22;33786;48.690;9.562;2023-03-01T07:25:57;6.60;88.60
48019;DHT22;33786;48.690;9.562;2023-03-01T07:28:24;7.30;87.10
48019;DHT22;33786;48.690;9.562;2023-03-01T07:30:51;8.10;83.20
48019;DHT22;33786;48.690;9.562;2023-03-01T07:33:17;7.80;83.60
48019;DHT22;33786;48.690;9.562;2023-03-01T07:35:44;7.70;83.10
48019;DHT22;33786;48.690;9.562;2023-03-01T07:38:11;7.40;83.50
48019;DHT22;33786;48.690;9.562;2023-03-01T07:40:37;8.10;82.20
48019;DHT22;33786;48.690;9.562;2023-03-01T07:43:04;8.60;79.80
48019;DHT22;33786;48.690;9.562;2023-03-01T07:45:31;7.70;82.00
48019;DHT22;33786;48.690;9.562;2023-03-01T07:47:57;8.10;81.40
48019;DHT22;33786;48.690;9.562;2023-03-01T07:50:24;8.40;79.20
48019;DHT22;33786;48.690;9.562;2023-03-01T07:52:51;7.80;80.30
48019;DHT22;33786;48.690;9.562;2023-03-01T07:55:17;7.60;80.60
48019;DHT22;33786;48.690;9.562;2023-03-01T07:57:44;8.30;80.00
48019;DHT22;33786;48.690;9.562;2023-03-01T08:00:11;9.00;77.60
48019;DHT22;33786;48.690;9.562;2023-03-01T08:02:38;8.40;78.30
48019;DHT22;33786;48.690;9.562;2023-03-01T08:05:07;7.70;79.90
48019;DHT22;33786;48.690;9.562;2023-03-01T08:07:33;7.90;79.50
48019;DHT22;33786;48.690;9.562;2023-03-01T08:10:00;7.90;79.00
48019;DHT22;33786;48.690;9.562;2023-03-01T08:12:27;7.10;81.50
48019;DHT22;33786;48.690;9.562;2023-03-01T08:14:54;7.60;80.40
48019;DHT22;33786;48.690;9.562;2023-03-01T08:17:21;8.30;78.90
48019;DHT22;33786;48.690;9.562;2023-03-01T08:19:48;8.90;76.90
48019;DHT22;33786;48.690;9.562;2023-03-01T08:22:14;9.00;76.70
48019;DHT22;33786;48.690;9.562;2023-03-01T08:24:41;9.50;74.80
48019;DHT22;33786;48.690;9.562;2023-03-01T08:27:08;9.50;74.70
48019;DHT22;33786;48.690;9.562;2023-03-01T08:29:35;10.10;73.10
48019;DHT22;33786;48.690;9.562;2023-03-01T08:32:01;10.00;73.50
48019;DHT22;33786;48.690;9.562;2023-03-01T08:34:28;10.20;72.90
48019;DHT22;33786;48.690;9.562;2023-03-01T08:36:56;10.30;71.80
48019;DHT22;33786;48.690;9.562;2023-03-01T08:39:22;11.60;70.30
48019;DHT22;33786;48.690;9.562;2023-03-01T08:41:49;11.10;69.20
48019;DHT22;33786;48.690;9.562;2023-03-01T08:44:16;12.00;67.60
48019;DHT22;33786;48.690;9.562;2023-03-01T08:46:43;11.10;68.70
48019;DHT22;33786;48.690;9.562;2023-03-01T08:49:14;10.30;70.80
48019;DHT22;33786;48.690;9.562;2023-03-01T08:51:42;10.00;71.10
48019;DHT22;33786;48.690;9.562;2023-03-01T08:54:10;10.50;70.90
48019;DHT22;33786;48.690;9.562;2023-03-01T08:56:37;12.40;66.40
48019;DHT22;33786;48.690;9.562;2023-03-01T08:59:04;13.10;65.40
48019;DHT22;33786;48.690;9.562;2023-03-01T09:01:31;14.10;64.00
48019;DHT22;33786;48.690;9.562;2023-03-01T09:03:58;13.50;63.30
48019;DHT22;33786;48.690;9.562;2023-03-01T09:06:24;13.60;62.40
48019;DHT22;33786;48.690;9.562;2023-03-01T09:08:51;13.10;62.70
48019;DHT22;33786;48.690;9.562;2023-03-01T09:11:19;12.10;64.80
48019;DHT22;33786;48.690;9.562;2023-03-01T09:13:47;11.70;65.30
48019;DHT22;33786;48.690;9.562;2023-03-01T09:16:14;12.50;63.70
48019;DHT22;33786;48.690;9.562;2023-03-01T09:18:41;12.20;63.60
48019;DHT22;33786;48.690;9.562;2023-03-01T09:21:09;12.10;64.70
48019;DHT22;33786;48.690;9.562;2023-03-01T09:23:36;12.00;64.00
48019;DHT22;33786;48.690;9.562;2023-03-01T09:26:05;11.40;65.40
48019;DHT22;33786;48.690;9.562;2023-03-01T09:28:32;12.00;65.60
48019;DHT22;33786;48.690;9.562;2023-03-01T09:30:59;12.70;62.60
48019;DHT22;33786;48.690;9.562;2023-03-01T09:33:28;12.40;62.00
48019;DHT22;33786;48.690;9.562;2023-03-01T09:35:58;12.10;63.50
48019;DHT22;33786;48.690;9.562;2023-03-01T09:38:25;12.70;62.40
48019;DHT22;33786;48.690;9.562;2023-03-01T09:40:52;11.00;65.50
48019;DHT22;33786;48.690;9.562;2023-03-01T09:45:52;12.90;62.10
48019;DHT22;33786;48.690;9.562;2023-03-01T09:48:25;11.80;63.30
48019;DHT22;33786;48.690;9.562;2023-03-01T09:50:53;12.10;62.60
48019;DHT22;33786;48.690;9.562;2023-03-01T09:53:21;10.90;65.70
48019;DHT22;33786;48.690;9.562;2023-03-01T10:04:00;10.30;65.90
48019;DHT22;33786;48.690;9.562;2023-03-01T10:06:28;11.30;63.30
48019;DHT22;33786;48.690;9.562;2023-03-01T10:11:31;11.00;65.30
48019;DHT22;33786;48.690;9.562;2023-03-01T10:14:01;11.70;63.90
48019;DHT22;33786;48.690;9.562;2023-03-01T10:19:05;13.30;60.10
48019;DHT22;33786;48.690;9.562;2023-03-01T10:21:36;12.20;62.10
48019;DHT22;33786;48.690;9.562;2023-03-01T10:24:12;13.00;61.30
48019;DHT22;33786;48.690;9.562;2023-03-01T10:29:07;11.30;64.20
48019;DHT22;33786;48.690;9.562;2023-03-01T10:31:38;12.00;63.70
48019;DHT22;33786;48.690;9.562;2023-03-01T10:34:10;12.00;62.40
48019;DHT22;33786;48.690;9.562;2023-03-01T10:36:38;11.40;64.40
48019;DHT22;33786;48.690;9.562;2023-03-01T10:39:10;11.50;64.20
48019;DHT22;33786;48.690;9.562;2023-03-01T10:41:40;12.00;63.30
48019;DHT22;33786;48.690;9.562;2023-03-01T10:47:02;11.90;63.30
48019;DHT22;33786;48.690;9.562;2023-03-01T10:49:29;12.40;62.80
48019;DHT22;33786;48.690;9.562;2023-03-01T10:51:56;12.30;63.10
48019;DHT22;33786;48.690;9.562;2023-03-01T10:54:37;12.60;62.60
48019;DHT22;33786;48.690;9.562;2023-03-01T10:57:04;12.00;63.40
48019;DHT22;33786;48.690;9.562;2023-03-01T10:59:33;11.40;63.50
48019;DHT22;33786;48.690;9.562;2023-03-01T11:07:22;11.00;65.10
48019;DHT22;33786;48.690;9.562;2023-03-01T11:09:50;11.80;64.30
48019;DHT22;33786;48.690;9.562;2023-03-01T11:12:16;11.70;64.50
48019;DHT22;33786;48.690;9.562;2023-03-01T11:14:51;11.70;64.00
48019;DHT22;33786;48.690;9.562;2023-03-01T11:17:27;11.80;65.00
48019;DHT22;33786;48.690;9.562;2023-03-01T11:22:45;11.50;65.30
48019;DHT22;33786;48.690;9.562;2023-03-01T11:25:13;11.90;63.40
48019;DHT22;33786;48.690;9.562;2023-03-01T11:27:41;11.00;65.00
48019;DHT22;33786;48.690;9.562;2023-03-01T11:32:40;11.20;64.60
48019;DHT22;33786;48.690;9.562;2023-03-01T11:37:38;10.70;66.90
48019;DHT22;33786;48.690;9.562;2023-03-01T11:45:52;10.50;66.60
48019;DHT22;33786;48.690;9.562;2023-03-01T11:48:28;11.00;66.60
48019;DHT22;33786;48.690;9.562;2023-03-01T11:51:23;11.40;65.50
48019;DHT22;33786;48.690;9.562;2023-03-01T11:54:01;12.10;63.00
48019;DHT22;33786;48.690;9.562;2023-03-01T11:56:40;11.80;64.50
48019;DHT22;33786;48.690;9.562;2023-03-01T12:07:00;11.60;65.20
48019;DHT22;33786;48.690;9.562;2023-03-01T12:09:31;10.10;67.60
48019;DHT22;33786;48.690;9.562;2023-03-01T12:30:22;8.70;72.50
48019;DHT22;33786;48.690;9.562;2023-03-01T12:33:02;8.80;72.70
48019;DHT22;33786;48.690;9.562;2023-03-01T12:35:34;8.50;72.90
48019;DHT22;33786;48.690;9.562;2023-03-01T12:40:58;8.20;75.00
48019;DHT22;33786;48.690;9.562;2023-03-01T12:46:10;8.10;74.10
48019;DHT22;33786;48.690;9.562;2023-03-01T12:51:22;8.10;74.50
48019;DHT22;33786;48.690;9.562;2023-03-01T12:53:50;8.00;74.40
48019;DHT22;33786;48.690;9.562;2023-03-01T12:56:19;8.20;74.50
48019;DHT22;33786;48.690;9.562;2023-03-01T13:04:20;8.60;73.90
48019;DHT22;33786;48.690;9.562;2023-03-01T13:17:49;8.20;74.40
48019;DHT22;33786;48.690;9.562;2023-03-01T13:20:17;8.50;74.80
48019;DHT22;33786;48.690;9.562;2023-03-01T13:22:44;8.60;74.20
48019;DHT22;33786;48.690;9.562;2023-03-01T13:25:20;8.40;73.80
48019;DHT22;33786;48.690;9.562;2023-03-01T13:27:51;8.20;74.70
48019;DHT22;33786;48.690;9.562;2023-03-01T13:30:39;8.20;74.60
48019;DHT22;33786;48.690;9.562;2023-03-01T13:35:52;8.20;74.80
48019;DHT22;33786;48.690;9.562;2023-03-01T13:38:38;8.00;74.60
48019;DHT22;33786;48.690;9.562;2023-03-01T13:41:07;8.00;75.10
48019;DHT22;33786;48.690;9.562;2023-03-01T13:43:37;8.00;75.90
48019;DHT22;33786;48.690;9.562;2023-03-01T13:46:19;8.00;75.10
48019;DHT22;33786;48.690;9.562;2023-03-01T13:48:49;7.90;76.30
48019;DHT22;33786;48.690;9.562;2023-03-01T13:51:20;8.10;76.30
48019;DHT22;33786;48.690;9.562;2023-03-01T13:53:50;8.10;75.70
48019;DHT22;33786;48.690;9.562;2023-03-01T13:56:20;8.10;76.00
48019;DHT22;33786;48.690;9.562;2023-03-01T13:58:49;8.10;75.70
48019;DHT22;33786;48.690;9.562;2023-03-01T14:01:26;7.80;75.70
48019;DHT22;33786;48.690;9.562;2023-03-01T14:03:54;7.60;77.10
48019;DHT22;33786;48.690;9.562;2023-03-01T14:06:22;7.90;76.90
48019;DHT22;33786;48.690;9.562;2023-03-01T14:08:50;8.00;77.00
48019;DHT22;33786;48.690;9.562;2023-03-01T14:19:27;8.10;76.70
48019;DHT22;33786;48.690;9.562;2023-03-01T14:24:52;7.80;76.80
48019;DHT22;33786;48.690;9.562;2023-03-01T14:27:20;7.80;77.70
48019;DHT22;33786;48.690;9.562;2023-03-01T14:29:54;7.90;77.50
48019;DHT22;33786;48.690;9.562;2023-03-01T14:32:22;7.80;77.20
48019;DHT22;33786;48.690;9.562;2023-03-01T14:34:50;7.80;77.70
48019;DHT22;33786;48.690;9.562;2023-03-01T14:39:44;7.40;78.00
48019;DHT22;33786;48.690;9.562;2023-03-01T14:42:13;7.50;77.90
48019;DHT22;33786;48.690;9.562;2023-03-01T14:44:42;7.40;78.00
48019;DHT22;33786;48.690;9.562;2023-03-01T14:47:11;7.40;78.20
48019;DHT22;33786;48.690;9.562;2023-03-01T14:49:41;7.40;78.20
48019;DHT22;33786;48.690;9.562;2023-03-01T14:52:17;7.50;78.30
48019;DHT22;33786;48.690;9.562;2023-03-01T14:54:46;7.50;77.90
48019;DHT22;33786;48.690;9.562;2023-03-01T14:57:18;7.50;78.00
48019;DHT22;33786;48.690;9.562;2023-03-01T14:59:45;7.50;77.50
48019;DHT22;33786;48.690;9.562;2023-03-01T15:02:18;7.50;78.20
48019;DHT22;33786;48.690;9.562;2023-03-01T15:04:54;7.50;77.90
48019;DHT22;33786;48.690;9.562;2023-03-01T15:07:24;7.40;78.00
48019;DHT22;33786;48.690;9.562;2023-03-01T15:09:53;7.50;77.90
48019;DHT22;33786;48.690;9.562;2023-03-01T15:12:40;7.40;78.00
48019;DHT22;33786;48.690;9.562;2023-03-01T15:18:18;7.30;78.00
48019;DHT22;33786;48.690;9.562;2023-03-01T15:20:47;7.40;78.10
48019;DHT22;33786;48.690;9.562;2023-03-01T15:23:19;7.40;78.00
48019;DHT22;33786;48.690;9.562;2023-03-01T15:25:46;7.50;77.90
48019;DHT22;33786;48.690;9.562;2023-03-01T15:28:18;7.50;78.20
48019;DHT22;33786;48.690;9.562;2023-03-01T15:30:51;7.50;78.00
48019;DHT22;33786;48.690;9.562;2023-03-01T15:33:25;7.50;78.20
48019;DHT22;33786;48.690;9.562;2023-03-01T15:35:58;7.40;77.50
48019;DHT22;33786;48.690;9.562;2023-03-01T15:38:35;7.40;77.70
48019;DHT22;33786;48.690;9.562;2023-03-01T15:41:05;7.40;77.60
48019;DHT22;33786;48.690;9.562;2023-03-01T15:43:47;7.40;78.40
48019;DHT22;33786;48.690;9.562;2023-03-01T15:48:46;7.30;78.20
48019;DHT22;33786;48.690;9.562;2023-03-01T15:51:15;7.30;78.40
48019;DHT22;33786;48.690;9.562;2023-03-01T15:53:44;7.20;78.50
48019;DHT22;33786;48.690;9.562;2023-03-01T15:56:20;7.30;78.30
48019;DHT22;33786;48.690;9.562;2023-03-01T15:58:47;7.20;78.30
48019;DHT22;33786;48.690;9.562;2023-03-01T16:01:14;7.20;78.50
48019;DHT22;33786;48.690;9.562;2023-03-01T16:03:42;7.20;78.70
48019;DHT22;33786;48.690;9.562;2023-03-01T16:06:10;7.20;79.00
48019;DHT22;33786;48.690;9.562;2023-03-01T16:08:37;7.20;78.60
48019;DHT22;33786;48.690;9.562;2023-03-01T16:11:14;7.10;79.10
48019;DHT22;33786;48.690;9.562;2023-03-01T16:13:42;7.20;79.30
48019;DHT22;33786;48.690;9.562;2023-03-01T16:16:12;7.10;79.20
48019;DHT22;33786;48.690;9.562;2023-03-01T16:18:45;7.10;78.80
48019;DHT22;33786;48.690;9.562;2023-03-01T16:21:17;7.00;78.80
48019;DHT22;33786;48.690;9.562;2023-03-01T16:23:47;7.00;79.30
48019;DHT22;33786;48.690;9.562;2023-03-01T16:26:14;7.00;78.80
48019;DHT22;33786;48.690;9.562;2023-03-01T16:28:46;6.90;79.30
48019;DHT22;33786;48.690;9.562;2023-03-01T16:31:16;6.90;79.10
48019;DHT22;33786;48.690;9.562;2023-03-01T16:33:44;6.90;79.60
48019;DHT22;33786;48.690;9.562;2023-03-01T16:36:16;6.80;79.50
48019;DHT22;33786;48.690;9.562;2023-03-01T16:38:43;6.80;79.60
48019;DHT22;33786;48.690;9.562;2023-03-01T16:41:11;6.80;80.00
48019;DHT22;33786;48.690;9.562;2023-03-01T16:43:47;6.80;80.00
48019;DHT22;33786;48.690;9.562;2023-03-01T16:46:27;6.80;80.00
48019;DHT22;33786;48.690;9.562;2023-03-01T16:48:59;6.70;80.20
48019;DHT22;33786;48.690;9.562;2023-03-01T16:51:26;6.70;80.50
48019;DHT22;33786;48.690;9.562;2023-03-01T16:53:52;6.70;80.90
48019;DHT22;33786;48.690;9.562;2023-03-01T16:56:19;6.60;81.00
48019;DHT22;33786;48.690;9.562;2023-03-01T16:58:46;6.50;81.00
48019;DHT22;33786;48.690;9.562;2023-03-01T17:01:17;6.50;81.20
48019;DHT22;33786;48.690;9.562;2023-03-01T17:03:44;6.40;81.50
48019;DHT22;33786;48.690;9.562;2023-03-01T17:06:17;6.40;81.90
48019;DHT22;33786;48.690;9.562;2023-03-01T17:08:44;6.30;82.00
48019;DHT22;33786;48.690;9.562;2023-03-01T17:11:16;6.20;82.50
48019;DHT22;33786;48.690;9.562;2023-03-01T17:13:44;6.20;82.90
48019;DHT22;33786;48.690;9.562;2023-03-01T17:16:12;6.10;83.00
48019;DHT22;33786;48.690;9.562;2023-03-01T17:18:39;6.10;83.30
48019;DHT22;33786;48.690;9.562;2023-03-01T17:21:06;5.90;83.70
48019;DHT22;33786;48.690;9.562;2023-03-01T17:23:34;5.90;84.10
48019;DHT22;33786;48.690;9.562;2023-03-01T17:26:01;5.80;84.50
48019;DHT22;33786;48.690;9.562;2023-03-01T17:28:28;5.70;84.70
48019;DHT22;33786;48.690;9.562;2023-03-01T17:30:55;5.70;84.70
48019;DHT22;33786;48.690;9.562;2023-03-01T17:33:22;5.60;84.70
48019;DHT22;33786;48.690;9.562;2023-03-01T17:35:49;5.50;85.10
48019;DHT22;33786;48.690;9.562;2023-03-01T17:38:16;5.40;85.30
48019;DHT22;33786;48.690;9.562;2023-03-01T17:40:43;5.30;85.40
48019;DHT22;33786;48.690;9.562;2023-03-01T17:43:14;5.20;85.70
48019;DHT22;33786;48.690;9.562;2023-03-01T17:45:41;5.20;85.90
48019;DHT22;33786;48.690;9.562;2023-03-01T17:48:14;5.10;86.30
48019;DHT22;33786;48.690;9.562;2023-03-01T17:50:41;5.00;86.70
48019;DHT22;33786;48.690;9.562;2023-03-01T17:53:08;5.00;86.80
48019;DHT22;33786;48.690;9.562;2023-03-01T17:55:36;4.90;86.90